nws-alerts: Checking more than four warning/county codes can delay the loading of your pages. You should use a cron job to get the data.
EllijayWeather Station Historical Data
Daily Summary for January 13, 2019 Units:  English    Metric   Both
Daily Weekly Monthly Yearly Custom
  High: Low: Average:
Temperature: 41.7 °F 36.7 °F 39.2 °F
Dew Point: 41.2 °F 35.4 °F 38.3 °F
Humidity: 99% 95% 97%
Wind Speed: 2.0mph 0.0mph 0mph
Wind Gust: 9.0mph - -
Wind- - South
Pressure: 30.27 in 30.14 in -
Precipitation: 0.08 in    
Historical Graphs
 
 
Tabular Data for January 13, 2019
Time Temperature Dew Point Pressure Wind Wind Speed Wind Gust Humidity Rainfall Rate (Hourly) solar
00:04 36.9 °F 35.8 °F 30.19 in Calm     96% 0.17 in meteobridge W/m2
00:09 36.9 °F 35.8 °F 30.20 in Calm     96% 0.15 in meteobridge W/m2
00:14 36.9 °F 35.8 °F 30.19 in Calm     96% 0.15 in meteobridge W/m2
00:19 36.9 °F 35.6 °F 30.19 in Calm   7.0 mph 95% 0.14 in meteobridge W/m2
00:24 36.9 °F 35.6 °F 30.19 in Calm   1.0 mph 95% 0.14 in meteobridge W/m2
00:29 36.7 °F 35.6 °F 30.19 in Calm   1.0 mph 96% 0.14 in meteobridge W/m2
00:34 36.7 °F 35.6 °F 30.19 in Calm   4.0 mph 96% 0.13 in meteobridge W/m2
00:39 36.7 °F 35.6 °F 30.19 in Calm   4.0 mph 96% 0.10 in meteobridge W/m2
00:44 36.7 °F 35.6 °F 30.19 in SE 0.9 mph 2.0 mph 96% 0.08 in meteobridge W/m2
00:49 36.7 °F 35.4 °F 30.18 in SE 0.9 mph 2.0 mph 95% 0.08 in meteobridge W/m2
00:54 36.7 °F 35.4 °F 30.19 in Calm     95% 0.07 in meteobridge W/m2
00:59 36.7 °F 35.4 °F 30.18 in Calm   5.0 mph 95% 0.05 in meteobridge W/m2
01:04 36.7 °F 35.4 °F 30.18 in Calm   1.0 mph 95% 0.04 in meteobridge W/m2
01:09 36.7 °F 35.4 °F 30.18 in Calm   5.0 mph 95% 0.03 in meteobridge W/m2
01:14 36.7 °F 35.4 °F 30.17 in Calm   4.0 mph 95% 0.02 in meteobridge W/m2
01:19 36.7 °F 35.4 °F 30.17 in Calm   5.0 mph 95% 0.02 in meteobridge W/m2
01:24 36.9 °F 35.6 °F 30.17 in Calm   1.0 mph 95% 0.01 in meteobridge W/m2
01:29 36.7 °F 35.4 °F 30.16 in SSE 2.0 mph 4.0 mph 95% 0.00 in meteobridge W/m2
01:34 36.9 °F 35.6 °F 30.17 in Calm   9.0 mph 95% 0.00 in meteobridge W/m2
01:39 36.9 °F 35.6 °F 30.16 in Calm   4.0 mph 95% 0.00 in meteobridge W/m2
01:44 36.9 °F 35.6 °F 30.16 in Calm   1.0 mph 95% 0.00 in meteobridge W/m2
01:49 36.9 °F 35.6 °F 30.16 in Calm   6.0 mph 95% 0.00 in meteobridge W/m2
01:54 36.9 °F 35.6 °F 30.16 in Calm     95% 0.00 in meteobridge W/m2
01:59 36.9 °F 35.6 °F 30.16 in Calm     95% 0.00 in meteobridge W/m2
02:04 36.9 °F 35.8 °F 30.16 in Calm     96% 0.00 in meteobridge W/m2
02:09 36.9 °F 35.6 °F 30.16 in Calm     95% 0.00 in meteobridge W/m2
02:14 36.9 °F 35.8 °F 30.16 in Calm     96% 0.00 in meteobridge W/m2
02:19 37.0 °F 36.0 °F 30.16 in Calm   2.0 mph 96% 0.00 in meteobridge W/m2
02:24 37.0 °F 36.0 °F 30.16 in Calm     96% 0.00 in meteobridge W/m2
02:29 37.0 °F 36.0 °F 30.16 in Calm     96% 0.00 in meteobridge W/m2
02:34 37.2 °F 36.1 °F 30.16 in Calm     96% 0.00 in meteobridge W/m2
02:39 37.2 °F 36.1 °F 30.16 in Calm     96% 0.00 in meteobridge W/m2
02:44 37.4 °F 36.3 °F 30.16 in Calm     96% 0.00 in meteobridge W/m2
02:49 37.4 °F 36.3 °F 30.16 in Calm     96% 0.00 in meteobridge W/m2
02:54 37.4 °F 36.3 °F 30.16 in Calm   1.0 mph 96% 0.00 in meteobridge W/m2
02:59 37.4 °F 36.3 °F 30.16 in Calm   1.0 mph 96% 0.00 in meteobridge W/m2
03:04 37.6 °F 36.5 °F 30.16 in Calm   1.0 mph 96% 0.00 in meteobridge W/m2
03:09 37.6 °F 36.5 °F 30.16 in Calm     96% 0.00 in meteobridge W/m2
03:14 37.6 °F 36.5 °F 30.16 in Calm     96% 0.00 in meteobridge W/m2
03:19 37.6 °F 36.5 °F 30.17 in Calm     96% 0.01 in meteobridge W/m2
03:24 37.4 °F 36.3 °F 30.16 in Calm     96% 0.01 in meteobridge W/m2
03:29 37.2 °F 36.1 °F 30.16 in Calm     96% 0.01 in meteobridge W/m2
03:34 37.2 °F 36.1 °F 30.17 in Calm     96% 0.01 in meteobridge W/m2
03:39 37.2 °F 36.1 °F 30.17 in Calm     96% 0.01 in meteobridge W/m2
03:44 37.2 °F 36.1 °F 30.16 in Calm     96% 0.01 in meteobridge W/m2
03:48 37.2 °F 36.0 °F 30.16 in Calm   1.0 mph 95% 0.01 in meteobridge W/m2
03:54 37.2 °F 36.1 °F 30.16 in Calm     96% 0.01 in meteobridge W/m2
03:59 37.2 °F 36.1 °F 30.16 in Calm     96% 0.01 in meteobridge W/m2
04:04 37.2 °F 36.1 °F 30.16 in Calm     96% 0.01 in meteobridge W/m2
04:09 37.2 °F 36.0 °F 30.16 in Calm     95% 0.01 in meteobridge W/m2
04:14 37.4 °F 36.3 °F 30.16 in Calm     96% 0.01 in meteobridge W/m2
04:19 37.2 °F 36.0 °F 30.15 in Calm   2.0 mph 95% 0.00 in meteobridge W/m2
04:24 37.2 °F 36.0 °F 30.15 in Calm   2.0 mph 95% 0.00 in meteobridge W/m2
04:29 37.2 °F 36.0 °F 30.15 in Calm     95% 0.00 in meteobridge W/m2
04:34 37.2 °F 36.1 °F 30.15 in Calm     96% 0.00 in meteobridge W/m2
04:39 37.4 °F 36.3 °F 30.14 in Calm     96% 0.00 in meteobridge W/m2
04:44 37.4 °F 36.1 °F 30.15 in Calm     95% 0.00 in meteobridge W/m2
04:49 37.2 °F 36.1 °F 30.14 in Calm     96% 0.00 in meteobridge W/m2
04:54 37.4 °F 36.3 °F 30.14 in Calm   1.0 mph 96% 0.00 in meteobridge W/m2
04:59 37.6 °F 36.5 °F 30.14 in Calm     96% 0.00 in meteobridge W/m2
05:04 37.6 °F 36.5 °F 30.14 in Calm     96% 0.00 in meteobridge W/m2
05:09 37.6 °F 36.5 °F 30.14 in Calm     96% 0.00 in meteobridge W/m2
05:14 37.6 °F 36.5 °F 30.14 in Calm     96% 0.00 in meteobridge W/m2
05:19 37.8 °F 36.7 °F 30.14 in Calm     96% 0.00 in meteobridge W/m2
05:24 37.8 °F 36.5 °F 30.14 in Calm     95% 0.00 in meteobridge W/m2
05:29 37.8 °F 36.5 °F 30.14 in Calm     95% 0.00 in meteobridge W/m2
05:34 37.8 °F 36.5 °F 30.14 in Calm     95% 0.00 in meteobridge W/m2
05:39 37.8 °F 36.5 °F 30.14 in Calm     95% 0.00 in meteobridge W/m2
05:44 37.8 °F 36.5 °F 30.14 in Calm     95% 0.00 in meteobridge W/m2
05:49 37.8 °F 36.5 °F 30.14 in Calm     95% 0.00 in meteobridge W/m2
05:54 37.8 °F 36.5 °F 30.14 in Calm     95% 0.00 in meteobridge W/m2
05:59 37.8 °F 36.7 °F 30.14 in Calm     96% 0.00 in meteobridge W/m2
06:04 37.8 °F 36.7 °F 30.14 in Calm     96% 0.00 in meteobridge W/m2
06:09 37.8 °F 36.7 °F 30.14 in Calm     96% 0.00 in meteobridge W/m2
06:13 37.9 °F 36.9 °F 30.15 in Calm     96% 0.00 in meteobridge W/m2
06:19 37.9 °F 36.9 °F 30.14 in Calm     96% 0.00 in meteobridge W/m2
06:24 37.9 °F 36.9 °F 30.15 in Calm     96% 0.00 in meteobridge W/m2
06:29 37.9 °F 36.7 °F 30.15 in Calm     95% 0.00 in meteobridge W/m2
06:34 37.9 °F 36.7 °F 30.15 in Calm     95% 0.00 in meteobridge W/m2
06:39 37.9 °F 36.9 °F 30.14 in Calm     96% 0.00 in meteobridge W/m2
06:44 37.9 °F 36.9 °F 30.14 in Calm     96% 0.00 in meteobridge W/m2
06:49 37.9 °F 36.9 °F 30.15 in Calm     96% 0.00 in meteobridge W/m2
06:54 37.9 °F 36.7 °F 30.15 in Calm     95% 0.00 in meteobridge W/m2
06:59 37.9 °F 36.9 °F 30.14 in Calm     96% 0.00 in meteobridge W/m2
07:04 37.9 °F 36.9 °F 30.15 in Calm     96% 0.00 in meteobridge W/m2
07:09 37.9 °F 36.9 °F 30.15 in Calm     96% 0.00 in meteobridge W/m2
07:14 37.9 °F 36.9 °F 30.15 in Calm     96% 0.00 in meteobridge W/m2
07:19 37.9 °F 36.9 °F 30.15 in Calm     96% 0.00 in meteobridge W/m2
07:24 37.9 °F 36.9 °F 30.15 in Calm     96% 0.00 in meteobridge W/m2
07:29 37.9 °F 36.9 °F 30.15 in Calm     96% 0.00 in meteobridge W/m2
07:34 37.9 °F 36.9 °F 30.15 in Calm     96% 0.00 in meteobridge W/m2
07:39 38.1 °F 37.0 °F 30.15 in Calm     96% 0.00 in meteobridge W/m2
07:44 38.1 °F 37.0 °F 30.14 in Calm     96% 0.00 in meteobridge W/m2
07:49 37.9 °F 36.9 °F 30.14 in Calm     96% 0.00 in meteobridge W/m2
07:54 38.1 °F 37.0 °F 30.14 in Calm     96% 0.00 in meteobridge W/m2
07:59 38.1 °F 37.0 °F 30.14 in Calm     96% 0.00 in meteobridge W/m2
08:04 38.1 °F 37.0 °F 30.15 in Calm     96% 0.00 in meteobridge W/m2
08:09 38.1 °F 37.0 °F 30.15 in Calm     96% 0.00 in meteobridge W/m2
08:14 38.1 °F 37.0 °F 30.16 in Calm     96% 0.00 in meteobridge W/m2
08:19 38.1 °F 37.0 °F 30.16 in Calm     96% 0.00 in meteobridge W/m2
08:24 38.1 °F 37.0 °F 30.16 in Calm     96% 0.00 in meteobridge W/m2
08:29 38.3 °F 37.2 °F 30.16 in Calm     96% 0.00 in meteobridge W/m2
08:34 38.3 °F 37.2 °F 30.16 in Calm     96% 0.00 in meteobridge W/m2
08:39 38.5 °F 37.8 °F 30.16 in Calm     97% 0.00 in meteobridge W/m2
08:44 38.5 °F 37.4 °F 30.16 in Calm     96% 0.00 in meteobridge W/m2
08:49 38.5 °F 37.4 °F 30.16 in Calm     96% 0.00 in meteobridge W/m2
08:54 38.7 °F 37.6 °F 30.16 in Calm     96% 0.00 in meteobridge W/m2
08:59 38.7 °F 37.6 °F 30.17 in Calm     96% 0.00 in meteobridge W/m2
09:04 38.7 °F 37.6 °F 30.17 in Calm     96% 0.00 in meteobridge W/m2
09:09 38.8 °F 37.8 °F 30.18 in Calm     96% 0.00 in meteobridge W/m2
09:14 38.7 °F 37.6 °F 30.18 in Calm     96% 0.00 in meteobridge W/m2
09:19 38.8 °F 37.8 °F 30.19 in Calm     96% 0.00 in meteobridge W/m2
09:24 38.8 °F 37.8 °F 30.18 in Calm     96% 0.00 in meteobridge W/m2
09:29 38.8 °F 38.1 °F 30.19 in Calm     97% 0.00 in meteobridge W/m2
09:34 38.8 °F 37.8 °F 30.18 in Calm     96% 0.00 in meteobridge W/m2
09:39 39.0 °F 37.9 °F 30.18 in Calm     96% 0.00 in meteobridge W/m2
09:44 39.0 °F 37.9 °F 30.19 in Calm     96% 0.00 in meteobridge W/m2
09:48 39.0 °F 37.9 °F 30.19 in Calm     96% 0.00 in meteobridge W/m2
09:54 39.2 °F 38.1 °F 30.19 in Calm     96% 0.00 in meteobridge W/m2
09:59 39.2 °F 38.1 °F 30.19 in Calm     96% 0.00 in meteobridge W/m2
10:04 39.4 °F 38.3 °F 30.19 in Calm     96% 0.00 in meteobridge W/m2
10:09 39.4 °F 38.3 °F 30.20 in Calm     96% 0.00 in meteobridge W/m2
10:14 39.6 °F 38.3 °F 30.20 in Calm     95% 0.00 in meteobridge W/m2
10:19 39.6 °F 38.3 °F 30.20 in Calm     95% 0.00 in meteobridge W/m2
10:24 39.6 °F 38.5 °F 30.21 in Calm     96% 0.00 in meteobridge W/m2
10:29 39.7 °F 38.7 °F 30.21 in Calm     96% 0.00 in meteobridge W/m2
10:34 39.7 °F 38.7 °F 30.21 in Calm     96% 0.00 in meteobridge W/m2
10:39 39.7 °F 38.7 °F 30.21 in Calm     96% 0.00 in meteobridge W/m2
10:44 39.7 °F 38.7 °F 30.21 in Calm     96% 0.00 in meteobridge W/m2
10:49 39.7 °F 38.7 °F 30.21 in Calm     96% 0.00 in meteobridge W/m2
10:54 39.7 °F 38.7 °F 30.21 in Calm     96% 0.00 in meteobridge W/m2
10:59 39.6 °F 38.5 °F 30.21 in Calm     96% 0.00 in meteobridge W/m2
11:04 39.6 °F 38.5 °F 30.21 in Calm     96% 0.00 in meteobridge W/m2
11:09 39.4 °F 38.3 °F 30.21 in Calm     96% 0.00 in meteobridge W/m2
11:14 39.4 °F 38.3 °F 30.21 in Calm     96% 0.00 in meteobridge W/m2
11:19 39.4 °F 38.3 °F 30.21 in Calm     96% 0.00 in meteobridge W/m2
11:24 39.4 °F 38.3 °F 30.21 in Calm     96% 0.00 in meteobridge W/m2
11:29 39.4 °F 38.3 °F 30.21 in Calm     96% 0.00 in meteobridge W/m2
11:34 39.4 °F 38.3 °F 30.21 in Calm     96% 0.00 in meteobridge W/m2
11:39 39.2 °F 38.1 °F 30.21 in Calm     96% 0.00 in meteobridge W/m2
11:44 39.2 °F 38.1 °F 30.21 in Calm     96% 0.00 in meteobridge W/m2
11:49 39.2 °F 38.1 °F 30.20 in Calm     96% 0.01 in meteobridge W/m2
11:54 39.0 °F 37.9 °F 30.20 in Calm     96% 0.01 in meteobridge W/m2
11:59 39.0 °F 37.9 °F 30.20 in Calm     96% 0.01 in meteobridge W/m2
12:04 39.0 °F 37.9 °F 30.20 in Calm     96% 0.01 in meteobridge W/m2
12:09 38.8 °F 37.8 °F 30.19 in Calm     96% 0.01 in meteobridge W/m2
12:14 39.0 °F 37.9 °F 30.19 in Calm     96% 0.01 in meteobridge W/m2
12:19 38.8 °F 37.8 °F 30.19 in Calm     96% 0.01 in meteobridge W/m2
12:24 38.8 °F 38.1 °F 30.19 in Calm     97% 0.01 in meteobridge W/m2
12:29 39.0 °F 37.9 °F 30.19 in Calm     96% 0.01 in meteobridge W/m2
12:34 39.0 °F 38.3 °F 30.19 in Calm     97% 0.01 in meteobridge W/m2
12:39 39.0 °F 37.9 °F 30.18 in Calm     96% 0.01 in meteobridge W/m2
12:44 39.0 °F 38.3 °F 30.18 in Calm     97% 0.01 in meteobridge W/m2
12:49 39.2 °F 38.5 °F 30.18 in Calm     97% 0.00 in meteobridge W/m2
12:54 39.0 °F 38.3 °F 30.18 in Calm     97% 0.00 in meteobridge W/m2
12:59 39.2 °F 38.5 °F 30.18 in Calm     97% 0.00 in meteobridge W/m2
13:04 39.2 °F 38.5 °F 30.18 in Calm     97% 0.00 in meteobridge W/m2
13:09 39.2 °F 38.5 °F 30.18 in Calm     97% 0.00 in meteobridge W/m2
13:14 39.4 °F 38.7 °F 30.18 in Calm     97% 0.00 in meteobridge W/m2
13:19 39.4 °F 38.7 °F 30.18 in Calm     97% 0.00 in meteobridge W/m2
13:24 39.4 °F 38.7 °F 30.18 in Calm     97% 0.00 in meteobridge W/m2
13:29 39.4 °F 38.7 °F 30.18 in Calm     97% 0.00 in meteobridge W/m2
13:34 39.6 °F 38.8 °F 30.18 in Calm     97% 0.00 in meteobridge W/m2
13:39 39.6 °F 38.8 °F 30.18 in Calm     97% 0.00 in meteobridge W/m2
13:44 39.6 °F 38.8 °F 30.18 in Calm     97% 0.00 in meteobridge W/m2
13:49 39.6 °F 38.8 °F 30.17 in Calm     97% 0.00 in meteobridge W/m2
13:54 39.7 °F 39.0 °F 30.17 in Calm     97% 0.00 in meteobridge W/m2
13:59 39.7 °F 39.0 °F 30.18 in Calm     97% 0.00 in meteobridge W/m2
14:04 39.7 °F 39.0 °F 30.17 in Calm     97% 0.00 in meteobridge W/m2
14:09 39.6 °F 38.8 °F 30.17 in Calm     97% 0.00 in meteobridge W/m2
14:14 39.7 °F 39.0 °F 30.17 in Calm     97% 0.00 in meteobridge W/m2
14:19 39.7 °F 39.0 °F 30.17 in Calm     97% 0.00 in meteobridge W/m2
14:24 39.7 °F 39.0 °F 30.17 in Calm     97% 0.00 in meteobridge W/m2
14:29 39.7 °F 39.0 °F 30.18 in Calm     97% 0.00 in meteobridge W/m2
14:34 39.7 °F 39.0 °F 30.18 in Calm     97% 0.00 in meteobridge W/m2
14:39 39.9 °F 39.2 °F 30.18 in Calm     97% 0.00 in meteobridge W/m2
14:44 39.9 °F 39.2 °F 30.18 in Calm     97% 0.00 in meteobridge W/m2
14:49 39.9 °F 39.2 °F 30.18 in Calm     97% 0.00 in meteobridge W/m2
14:54 40.3 °F 39.7 °F 30.18 in Calm     98% 0.00 in meteobridge W/m2
14:59 40.3 °F 39.6 °F 30.18 in Calm     97% 0.00 in meteobridge W/m2
15:04 40.3 °F 39.6 °F 30.18 in Calm     97% 0.00 in meteobridge W/m2
15:09 40.3 °F 39.6 °F 30.18 in Calm     97% 0.00 in meteobridge W/m2
15:14 40.3 °F 39.6 °F 30.18 in Calm     97% 0.00 in meteobridge W/m2
15:18 40.5 °F 39.7 °F 30.18 in Calm     97% 0.00 in meteobridge W/m2
15:24 40.5 °F 39.7 °F 30.18 in Calm     97% 0.01 in meteobridge W/m2
15:29 40.5 °F 39.7 °F 30.18 in Calm     97% 0.01 in meteobridge W/m2
15:34 40.5 °F 39.7 °F 30.19 in Calm     97% 0.01 in meteobridge W/m2
15:39 40.5 °F 39.7 °F 30.19 in Calm     97% 0.01 in meteobridge W/m2
15:44 40.5 °F 39.7 °F 30.19 in Calm     97% 0.01 in meteobridge W/m2
15:49 40.5 °F 39.7 °F 30.19 in Calm     97% 0.01 in meteobridge W/m2
15:54 40.5 °F 39.7 °F 30.19 in Calm     97% 0.01 in meteobridge W/m2
15:59 40.3 °F 39.6 °F 30.19 in Calm     97% 0.01 in meteobridge W/m2
16:04 40.3 °F 39.6 °F 30.19 in Calm     97% 0.01 in meteobridge W/m2
16:09 40.3 °F 39.6 °F 30.19 in Calm     97% 0.01 in meteobridge W/m2
16:14 40.3 °F 39.6 °F 30.19 in Calm     97% 0.01 in meteobridge W/m2
16:19 40.3 °F 39.6 °F 30.19 in Calm     97% 0.01 in meteobridge W/m2
16:24 40.3 °F 39.6 °F 30.19 in Calm     97% 0.00 in meteobridge W/m2
16:29 40.3 °F 39.6 °F 30.19 in Calm     97% 0.00 in meteobridge W/m2
16:34 40.3 °F 39.6 °F 30.19 in Calm     97% 0.00 in meteobridge W/m2
16:39 40.3 °F 39.6 °F 30.19 in Calm     97% 0.00 in meteobridge W/m2
16:44 40.3 °F 39.6 °F 30.19 in Calm     97% 0.00 in meteobridge W/m2
16:49 40.3 °F 39.6 °F 30.19 in Calm     97% 0.00 in meteobridge W/m2
16:54 40.3 °F 39.6 °F 30.19 in Calm     97% 0.00 in meteobridge W/m2
16:59 40.3 °F 39.6 °F 30.19 in Calm     97% 0.00 in meteobridge W/m2
17:04 40.3 °F 39.6 °F 30.19 in Calm     97% 0.00 in meteobridge W/m2
17:09 40.3 °F 39.6 °F 30.20 in Calm     97% 0.00 in meteobridge W/m2
17:14 40.3 °F 39.6 °F 30.20 in Calm     97% 0.00 in meteobridge W/m2
17:19 40.3 °F 39.6 °F 30.20 in Calm     97% 0.00 in meteobridge W/m2
17:24 40.3 °F 39.6 °F 30.20 in Calm     97% 0.00 in meteobridge W/m2
17:29 40.3 °F 39.7 °F 30.20 in Calm     98% 0.00 in meteobridge W/m2
17:34 40.3 °F 39.7 °F 30.20 in Calm     98% 0.00 in meteobridge W/m2
17:39 40.3 °F 39.7 °F 30.20 in Calm     98% 0.00 in meteobridge W/m2
17:44 40.3 °F 39.7 °F 30.20 in Calm     98% 0.00 in meteobridge W/m2
17:49 40.3 °F 39.7 °F 30.21 in Calm     98% 0.00 in meteobridge W/m2
17:54 40.3 °F 39.7 °F 30.21 in Calm     98% 0.00 in meteobridge W/m2
17:59 40.3 °F 39.7 °F 30.21 in Calm     98% 0.00 in meteobridge W/m2
18:04 40.3 °F 39.7 °F 30.21 in Calm     98% 0.00 in meteobridge W/m2
18:09 40.3 °F 39.7 °F 30.22 in Calm     98% 0.00 in meteobridge W/m2
18:14 40.3 °F 39.7 °F 30.22 in Calm     98% 0.00 in meteobridge W/m2
18:19 40.5 °F 39.9 °F 30.22 in Calm     98% 0.00 in meteobridge W/m2
18:24 40.3 °F 39.7 °F 30.22 in Calm     98% 0.00 in meteobridge W/m2
18:29 40.5 °F 39.9 °F 30.23 in Calm     98% 0.00 in meteobridge W/m2
18:34 40.5 °F 39.9 °F 30.23 in Calm     98% 0.00 in meteobridge W/m2
18:39 40.3 °F 39.7 °F 30.23 in Calm     98% 0.00 in meteobridge W/m2
18:44 40.5 °F 39.9 °F 30.23 in Calm     98% 0.00 in meteobridge W/m2
18:49 40.5 °F 39.9 °F 30.23 in Calm     98% 0.00 in meteobridge W/m2
18:54 40.5 °F 39.9 °F 30.23 in Calm     98% 0.00 in meteobridge W/m2
18:59 40.5 °F 39.9 °F 30.24 in Calm     98% 0.00 in meteobridge W/m2
19:04 40.5 °F 39.9 °F 30.24 in Calm     98% 0.00 in meteobridge W/m2
19:09 40.5 °F 39.9 °F 30.24 in Calm     98% 0.00 in meteobridge W/m2
19:14 40.5 °F 39.9 °F 30.24 in Calm     98% 0.00 in meteobridge W/m2
19:19 40.6 °F 40.1 °F 30.24 in NNE 2.0 mph 2.0 mph 98% 0.00 in meteobridge W/m2
19:24 40.5 °F 39.9 °F 30.24 in Calm     98% 0.00 in meteobridge W/m2
19:29 40.6 °F 40.1 °F 30.24 in NNW 0.9 mph 2.0 mph 98% 0.00 in meteobridge W/m2
19:34 40.6 °F 40.1 °F 30.24 in Calm   2.0 mph 98% 0.00 in meteobridge W/m2
19:39 40.6 °F 40.1 °F 30.24 in Calm     98% 0.00 in meteobridge W/m2
19:44 40.6 °F 40.1 °F 30.24 in Calm     98% 0.00 in meteobridge W/m2
19:49 40.6 °F 40.1 °F 30.24 in Calm     98% 0.00 in meteobridge W/m2
19:54 40.6 °F 40.1 °F 30.24 in Calm     98% 0.01 in meteobridge W/m2
19:59 40.6 °F 40.1 °F 30.24 in Calm     98% 0.01 in meteobridge W/m2
20:04 40.8 °F 40.3 °F 30.25 in Calm     98% 0.01 in meteobridge W/m2
20:09 40.8 °F 40.3 °F 30.25 in Calm     98% 0.01 in meteobridge W/m2
20:14 40.8 °F 40.3 °F 30.25 in Calm   1.0 mph 98% 0.01 in meteobridge W/m2
20:19 40.8 °F 40.3 °F 30.25 in Calm     98% 0.01 in meteobridge W/m2
20:24 40.8 °F 40.3 °F 30.25 in Calm     98% 0.01 in meteobridge W/m2
20:29 40.8 °F 40.3 °F 30.25 in Calm     98% 0.01 in meteobridge W/m2
20:34 40.8 °F 40.3 °F 30.25 in Calm     98% 0.01 in meteobridge W/m2
20:39 40.8 °F 40.3 °F 30.25 in Calm     98% 0.01 in meteobridge W/m2
20:44 40.8 °F 40.3 °F 30.25 in Calm     98% 0.01 in meteobridge W/m2
20:49 40.8 °F 40.3 °F 30.25 in Calm     98% 0.01 in meteobridge W/m2
20:54 40.8 °F 40.3 °F 30.25 in Calm     98% 0.00 in meteobridge W/m2
20:59 40.8 °F 40.3 °F 30.25 in Calm     98% 0.00 in meteobridge W/m2
21:04 40.8 °F 40.3 °F 30.26 in Calm     98% 0.00 in meteobridge W/m2
21:09 40.8 °F 40.3 °F 30.26 in Calm     98% 0.00 in meteobridge W/m2
21:13 40.8 °F 40.3 °F 30.26 in Calm     98% 0.00 in meteobridge W/m2
21:19 40.8 °F 40.3 °F 30.26 in Calm     98% 0.00 in meteobridge W/m2
21:24 41.0 °F 40.5 °F 30.26 in Calm     98% 0.00 in meteobridge W/m2
21:29 41.2 °F 40.6 °F 30.26 in Calm     98% 0.00 in meteobridge W/m2
21:34 41.2 °F 40.6 °F 30.26 in Calm     98% 0.00 in meteobridge W/m2
21:39 41.2 °F 40.6 °F 30.26 in Calm     98% 0.00 in meteobridge W/m2
21:44 41.2 °F 40.6 °F 30.26 in Calm     98% 0.00 in meteobridge W/m2
21:49 41.2 °F 40.6 °F 30.26 in Calm     98% 0.00 in meteobridge W/m2
21:54 41.4 °F 41.2 °F 30.26 in Calm     99% 0.00 in meteobridge W/m2
21:59 41.4 °F 41.2 °F 30.26 in Calm     99% 0.00 in meteobridge W/m2
22:04 41.4 °F 40.8 °F 30.26 in Calm     98% 0.00 in meteobridge W/m2
22:08 41.4 °F 40.8 °F 30.26 in Calm     98% 0.00 in meteobridge W/m2
22:14 41.5 °F 41.0 °F 30.26 in Calm     98% 0.00 in meteobridge W/m2
22:19 41.5 °F 41.0 °F 30.26 in Calm     98% 0.00 in meteobridge W/m2
22:24 41.5 °F 41.0 °F 30.26 in Calm   4.0 mph 98% 0.00 in meteobridge W/m2
22:29 41.5 °F 41.0 °F 30.26 in Calm   2.0 mph 98% 0.00 in meteobridge W/m2
22:34 41.5 °F 41.0 °F 30.26 in Calm     98% 0.00 in meteobridge W/m2
22:39 41.5 °F 41.0 °F 30.26 in Calm     98% 0.00 in meteobridge W/m2
22:44 41.5 °F 41.0 °F 30.26 in Calm     98% 0.00 in meteobridge W/m2
22:49 41.5 °F 41.0 °F 30.27 in Calm     98% 0.00 in meteobridge W/m2
22:54 41.7 °F 41.2 °F 30.27 in Calm     98% 0.00 in meteobridge W/m2
22:59 41.5 °F 41.0 °F 30.27 in Calm   1.0 mph 98% 0.00 in meteobridge W/m2
23:04 41.7 °F 41.2 °F 30.27 in Calm     98% 0.00 in meteobridge W/m2
23:09 41.5 °F 41.0 °F 30.27 in Calm     98% 0.00 in meteobridge W/m2
23:14 41.5 °F 41.0 °F 30.27 in Calm     98% 0.00 in meteobridge W/m2
23:19 41.5 °F 41.0 °F 30.27 in Calm   1.0 mph 98% 0.00 in meteobridge W/m2
23:24 41.5 °F 41.0 °F 30.27 in NNW 0.9 mph 2.0 mph 98% 0.00 in meteobridge W/m2
23:29 41.5 °F 41.0 °F 30.27 in Calm   5.0 mph 98% 0.00 in meteobridge W/m2
23:34 41.5 °F 41.0 °F 30.27 in Calm     98% 0.00 in meteobridge W/m2
23:39 41.5 °F 41.0 °F 30.26 in Calm     98% 0.00 in meteobridge W/m2
23:44 41.4 °F 40.8 °F 30.26 in Calm     98% 0.00 in meteobridge W/m2
23:49 41.4 °F 40.8 °F 30.26 in Calm     98% 0.00 in meteobridge W/m2
23:54 41.4 °F 40.8 °F 30.26 in Calm   2.0 mph 98% 0.00 in meteobridge W/m2
23:59 41.4 °F 40.8 °F 30.26 in Calm     98% 0.00 in meteobridge W/m2
EllijayWeather
Compliments of Weather Underground - 2.5 mb